Virgil, Illinois
Current Conditions -  °F | °C
As of 3:15 PM on Friday 31 Oct 2014 (Local Time) from KDKB Reporting Station
Overcast Overcast  
Wind Chill: 25°   Ceiling: 4600
Heat Index: 37°   Visibility: 10mi
Dew Point: 20°   Wind: 29mph
Humidity: 50%   Direction: 350°N
Pressure: 30.27"   Gusts: 36mph
Location:  41.96°N, 88.54°W
Report Text: KDKB 312015Z AUTO 35025G31KT 10SM OVC046 03/M07 A3027 RMK AO2 T00281068
Loading
Personal Weather Stations






























Interactive Weather Map
Tropical Storm Tracking
New forecast layout! Learn more

10-Day Weather Forecast

Advertisements
Track Severe Weather on mobile